Time;durP1;ratioP1;P1;durP2;ratioP2;P2;SDS_P1;SDS_P2;PMS_P1;PMS_P2;Temp;Humidity;BMP_temperature;BMP_pressure;BME280_temperature;BME280_humidity;BME280_pressure;Samples;Min_cycle;Max_cycle;Signal;HPM_P1;HPM_P2
2023/09/02 00:01:51;;;;;;;30.02;22.88;;;;;;;18.40;100.00;101619.38;5023376;28;20083;-66
2023/09/02 00:04:18;;;;;;;38.65;27.30;;;;;;;18.37;100.00;101619.75;5043240;28;20044;-67
2023/09/02 00:06:44;;;;;;;39.22;27.92;;;;;;;18.36;100.00;101615.44;5026538;28;20509;-68
2023/09/02 00:09:12;;;;;;;38.10;26.90;;;;;;;18.29;100.00;101604.72;5041955;28;20080;-68
2023/09/02 00:11:39;;;;;;;37.97;27.13;;;;;;;18.27;100.00;101608.53;5034530;28;20147;-68
2023/09/02 00:14:05;;;;;;;38.90;26.83;;;;;;;18.21;100.00;101593.31;5031139;28;20057;-67
2023/09/02 00:16:32;;;;;;;36.20;26.42;;;;;;;18.18;100.00;101603.28;5038414;28;20045;-67
2023/09/02 00:18:58;;;;;;;35.10;26.77;;;;;;;18.15;100.00;101597.50;5034757;28;20057;-68
2023/09/02 00:21:24;;;;;;;35.40;25.73;;;;;;;18.11;100.00;101601.50;5041772;28;20089;-67
2023/09/02 00:24:00;;;;;;;39.05;28.48;;;;;;;18.07;100.00;101598.41;5035747;28;20053;-67
2023/09/02 00:26:28;;;;;;;44.67;29.13;;;;;;;18.03;100.00;101596.25;5043668;28;20103;-68
2023/09/02 00:28:54;;;;;;;40.40;27.85;;;;;;;17.97;100.00;101595.13;5032630;28;20538;-67
2023/09/02 00:31:21;;;;;;;36.92;25.63;;;;;;;17.93;100.00;101588.53;5042872;28;20533;-69
2023/09/02 00:33:47;;;;;;;39.30;25.63;;;;;;;17.90;100.00;101588.91;5051754;28;20059;-67
2023/09/02 00:36:14;;;;;;;34.92;24.27;;;;;;;17.87;100.00;101587.41;5037256;28;20135;-67
2023/09/02 00:38:40;;;;;;;33.33;22.98;;;;;;;17.87;100.00;101594.56;5041238;28;20762;-67
2023/09/02 00:41:26;;;;;;;33.55;23.90;;;;;;;17.85;100.00;101586.75;5031917;28;21984;-67
2023/09/02 00:43:54;;;;;;;31.95;23.80;;;;;;;17.80;100.00;101591.75;5036208;28;20057;-68
2023/09/02 00:46:21;;;;;;;40.60;24.42;;;;;;;17.78;100.00;101609.69;5033963;28;20891;-68
2023/09/02 00:48:48;;;;;;;35.22;24.48;;;;;;;17.72;100.00;101603.25;5040378;28;20045;-68
2023/09/02 00:51:14;;;;;;;34.55;23.13;;;;;;;17.71;100.00;101612.19;5045723;28;20087;-67
2023/09/02 00:53:41;;;;;;;39.38;23.50;;;;;;;17.68;100.00;101609.91;5036237;28;20480;-67
2023/09/02 00:56:07;;;;;;;35.28;23.95;;;;;;;17.62;100.00;101610.59;5040329;28;20045;-68
2023/09/02 00:58:35;;;;;;;32.25;23.35;;;;;;;17.62;100.00;101615.06;5031078;28;20060;-67
2023/09/02 01:01:03;;;;;;;35.65;23.75;;;;;;;17.61;100.00;101610.75;5024321;28;20049;-67
2023/09/02 01:03:30;;;;;;;34.60;22.98;;;;;;;17.57;100.00;101608.44;5039845;28;20087;-67
2023/09/02 01:05:58;;;;;;;33.30;22.40;;;;;;;17.50;100.00;101593.38;5044267;28;20091;-67
2023/09/02 01:08:26;;;;;;;42.22;29.88;;;;;;;17.48;100.00;101603.34;5039161;28;20499;-67
2023/09/02 01:10:53;;;;;;;42.47;26.88;;;;;;;17.46;100.00;101608.81;5032242;28;20143;-68
2023/09/02 01:13:20;;;;;;;38.00;25.40;;;;;;;17.48;100.00;101601.50;5040622;28;20670;-67
2023/09/02 01:15:46;;;;;;;33.20;23.23;;;;;;;17.48;100.00;101611.31;5038665;28;20399;-67
2023/09/02 01:18:13;;;;;;;37.88;23.23;;;;;;;17.51;100.00;101609.13;5040930;28;20078;-67
2023/09/02 01:20:45;;;;;;;36.03;23.38;;;;;;;17.49;100.00;101612.97;5040978;28;20452;-68
2023/09/02 01:23:14;;;;;;;32.28;22.95;;;;;;;17.44;100.00;101617.97;5041061;28;20053;-66
2023/09/02 01:26:13;;;;;;;35.85;23.67;;;;;;;17.46;100.00;101622.09;5043404;28;20055;-66
2023/09/02 01:28:42;;;;;;;33.03;22.33;;;;;;;17.49;100.00;101621.75;5037857;28;20073;-67
2023/09/02 01:31:12;;;;;;;32.15;22.17;;;;;;;17.51;100.00;101618.94;5042542;28;20110;-66
2023/09/02 01:33:41;;;;;;;33.08;21.23;;;;;;;17.50;100.00;101620.72;5039334;28;20409;-66
2023/09/02 01:36:12;;;;;;;33.90;22.33;;;;;;;17.50;100.00;101617.25;5041835;28;20084;-66
2023/09/02 01:38:40;;;;;;;39.10;26.58;;;;;;;17.54;100.00;101623.88;5041643;28;20107;-67
2023/09/02 01:41:09;;;;;;;34.95;24.92;;;;;;;17.57;100.00;101618.25;5035743;28;20665;-67
2023/09/02 01:43:37;;;;;;;37.47;25.77;;;;;;;17.56;100.00;101624.53;5042051;28;20110;-66
2023/09/02 01:46:05;;;;;;;37.58;24.40;;;;;;;17.57;100.00;101623.53;5043347;28;20059;-66
2023/09/02 01:48:33;;;;;;;32.55;23.52;;;;;;;17.61;100.00;101618.72;5045338;28;21602;-65
2023/09/02 01:51:01;;;;;;;35.83;23.92;;;;;;;17.62;100.00;101623.00;5033133;28;20057;-65
2023/09/02 01:53:29;;;;;;;37.05;23.45;;;;;;;17.61;100.00;101631.97;5037938;28;20057;-66
2023/09/02 01:55:56;;;;;;;32.90;23.08;;;;;;;17.59;100.00;101627.66;5033857;28;20506;-66
2023/09/02 01:58:23;;;;;;;34.40;23.25;;;;;;;17.62;100.00;101626.50;5039182;28;20076;-65
2023/09/02 02:00:50;;;;;;;34.88;22.85;;;;;;;17.64;100.00;101631.63;5023372;28;20051;-66
2023/09/02 02:03:33;;;;;;;34.13;22.05;;;;;;;17.64;100.00;101624.50;5031147;28;20051;-67
2023/09/02 02:06:00;;;;;;;33.72;22.92;;;;;;;17.61;100.00;101629.34;5034443;28;20047;-67
2023/09/02 02:08:58;;;;;;;37.00;23.10;;;;;;;17.65;100.00;101633.28;5026496;28;20080;-67
2023/09/02 02:11:28;;;;;;;33.38;22.65;;;;;;;17.64;100.00;101631.63;5039086;28;20158;-68
2023/09/02 02:14:03;;;;;;;35.08;23.52;;;;;;;17.63;100.00;101630.81;5033953;28;20049;-68
2023/09/02 02:16:30;;;;;;;31.75;22.42;;;;;;;17.66;100.00;101642.88;5038356;28;20458;-68
2023/09/02 02:18:59;;;;;;;32.20;21.85;;;;;;;17.68;100.00;101640.88;5033978;28;20746;-66
2023/09/02 02:21:29;;;;;;;33.20;22.38;;;;;;;17.69;100.00;101639.91;5035279;28;20437;-67
2023/09/02 02:23:56;;;;;;;32.35;22.15;;;;;;;17.66;100.00;101648.19;5033093;28;20753;-67
2023/09/02 02:26:23;;;;;;;30.40;21.77;;;;;;;17.67;100.00;101645.38;5035967;28;20045;-67
2023/09/02 02:28:50;;;;;;;36.20;22.83;;;;;;;17.70;100.00;101645.03;5039754;28;20106;-67
2023/09/02 02:31:16;;;;;;;41.55;23.60;;;;;;;17.74;100.00;101646.34;5042319;28;20348;-68
2023/09/02 02:33:43;;;;;;;36.47;23.23;;;;;;;17.74;100.00;101649.00;5042730;28;20045;-68
2023/09/02 02:36:11;;;;;;;36.65;23.92;;;;;;;17.76;100.00;101643.53;5034929;28;20053;-68
2023/09/02 02:38:37;;;;;;;35.47;23.95;;;;;;;17.79;100.00;101648.47;5037063;28;20077;-68
2023/09/02 02:41:03;;;;;;;34.67;23.08;;;;;;;17.81;100.00;101635.03;5039581;28;20045;-68
2023/09/02 02:43:30;;;;;;;37.67;24.13;;;;;;;17.80;100.00;101636.88;5036966;28;20124;-67
2023/09/02 02:45:56;;;;;;;37.22;24.13;;;;;;;17.79;100.00;101638.66;5039711;28;20049;-67
2023/09/02 02:48:29;;;;;;;39.47;24.23;;;;;;;17.82;100.00;101640.16;5028265;28;20044;-68
2023/09/02 02:50:57;;;;;;;37.20;23.58;;;;;;;17.82;100.00;101650.78;5035789;28;20533;-67
2023/09/02 02:53:24;;;;;;;39.53;24.17;;;;;;;17.86;100.00;101656.59;5036348;28;20723;-68
2023/09/02 02:55:50;;;;;;;40.88;25.75;;;;;;;17.82;100.00;101656.09;5037717;28;20118;-67
2023/09/02 02:58:17;;;;;;;36.65;23.80;;;;;;;17.81;100.00;101651.78;5042212;28;20119;-67
2023/09/02 03:00:44;;;;;;;41.45;24.70;;;;;;;17.83;100.00;101657.72;5021412;28;20115;-67
2023/09/02 03:03:11;;;;;;;42.55;25.65;;;;;;;17.87;100.00;101648.44;5039077;28;20052;-68
2023/09/02 03:05:40;;;;;;;41.80;24.35;;;;;;;17.90;100.00;101650.78;5030383;28;20048;-68
2023/09/02 03:08:08;;;;;;;41.78;25.30;;;;;;;17.90;100.00;101648.13;5040753;28;20056;-67
2023/09/02 03:10:35;;;;;;;39.95;24.88;;;;;;;17.90;100.00;101650.78;5035206;28;20059;-68
2023/09/02 03:13:03;;;;;;;41.63;25.42;;;;;;;17.90;100.00;101648.13;5038819;28;20052;-67
2023/09/02 03:15:29;;;;;;;42.88;26.23;;;;;;;17.92;100.00;101651.41;5044484;28;20044;-67
2023/09/02 03:17:56;;;;;;;45.22;25.02;;;;;;;17.93;100.00;101650.41;5034070;28;20195;-67
2023/09/02 03:20:23;;;;;;;42.35;26.00;;;;;;;17.91;100.00;101647.09;5037722;28;20085;-68
2023/09/02 03:22:49;;;;;;;47.28;26.02;;;;;;;17.95;100.00;101650.22;5033581;28;20053;-67
2023/09/02 03:25:16;;;;;;;49.70;27.35;;;;;;;17.94;100.00;101643.28;5038674;28;20559;-67
2023/09/02 03:27:42;;;;;;;51.03;27.40;;;;;;;18.00;100.00;101657.69;5041000;28;20124;-67
2023/09/02 03:30:09;;;;;;;51.60;27.98;;;;;;;18.00;100.00;101655.84;5008978;28;20056;-67
2023/09/02 03:32:36;;;;;;;52.45;28.85;;;;;;;18.00;100.00;101652.38;5033772;28;20136;-68
2023/09/02 03:35:04;;;;;;;57.78;31.38;;;;;;;17.97;100.00;101642.91;5031375;28;20049;-68
2023/09/02 03:37:30;;;;;;;51.28;28.58;;;;;;;18.01;100.00;101654.03;5039544;28;20409;-67
2023/09/02 03:39:57;;;;;;;54.00;28.20;;;;;;;17.98;100.00;101653.38;5037965;28;20485;-68
2023/09/02 03:42:23;;;;;;;58.63;30.48;;;;;;;18.00;100.00;101658.50;5040825;28;20085;-68
2023/09/02 03:44:50;;;;;;;65.57;30.80;;;;;;;17.98;100.00;101660.50;5042134;28;20044;-67
2023/09/02 03:47:17;;;;;;;66.38;31.15;;;;;;;17.97;100.00;101654.38;5041587;28;20049;-67
2023/09/02 03:49:43;;;;;;;57.15;29.50;;;;;;;17.97;100.00;101670.31;5048024;28;20140;-67
2023/09/02 03:52:10;;;;;;;59.33;29.80;;;;;;;17.96;100.00;101668.66;5024001;28;20083;-67
2023/09/02 03:54:37;;;;;;;65.18;30.73;;;;;;;17.90;100.00;101666.69;5047069;28;20420;-67
2023/09/02 03:57:05;;;;;;;64.47;27.00;;;;;;;17.91;100.00;101673.63;5039214;28;20528;-68
2023/09/02 03:59:31;;;;;;;55.65;28.25;;;;;;;17.95;100.00;101682.94;5024573;28;20288;-68
2023/09/02 04:01:58;;;;;;;52.40;28.17;;;;;;;17.97;100.00;101680.09;5039460;28;21859;-67
2023/09/02 04:04:25;;;;;;;63.85;29.80;;;;;;;17.94;100.00;101675.97;5039997;28;20139;-67
2023/09/02 04:06:52;;;;;;;65.70;28.05;;;;;;;17.90;100.00;101685.28;5040046;28;20052;-68
2023/09/02 04:09:18;;;;;;;58.15;28.08;;;;;;;17.93;100.00;101684.91;5039011;28;20487;-68
2023/09/02 04:11:45;;;;;;;58.55;28.45;;;;;;;17.92;100.00;101680.63;5041236;28;20049;-67
2023/09/02 04:14:11;;;;;;;64.65;27.27;;;;;;;17.91;100.00;101675.47;5037074;28;20325;-72
2023/09/02 04:16:38;;;;;;;69.78;27.55;;;;;;;17.90;100.00;101669.34;5036203;28;20128;-68
2023/09/02 04:19:05;;;;;;;103.25;27.00;;;;;;;17.90;100.00;101676.50;5043274;28;20110;-67
2023/09/02 04:21:31;;;;;;;63.50;27.30;;;;;;;17.91;100.00;101680.78;5047544;28;20044;-67
2023/09/02 04:23:58;;;;;;;56.83;25.98;;;;;;;17.91;100.00;101676.28;5048673;28;20509;-67
2023/09/02 04:26:25;;;;;;;79.55;27.15;;;;;;;17.92;100.00;101677.16;5041281;28;20099;-67
2023/09/02 04:28:55;;;;;;;80.60;27.55;;;;;;;17.92;100.00;101674.47;5036085;28;20060;-67
2023/09/02 04:31:22;;;;;;;63.90;25.60;;;;;;;17.90;100.00;101685.28;5039807;28;20072;-68
2023/09/02 04:33:49;;;;;;;81.82;27.42;;;;;;;17.86;100.00;101691.09;5034198;28;20473;-67
2023/09/02 04:36:15;;;;;;;70.55;26.92;;;;;;;17.85;100.00;101687.59;5042873;28;20139;-68
2023/09/02 04:38:42;;;;;;;62.35;24.95;;;;;;;17.87;100.00;101692.75;5039976;28;20045;-68
2023/09/02 04:41:08;;;;;;;61.92;24.00;;;;;;;17.84;100.00;101685.13;5038780;28;20053;-67
2023/09/02 04:43:35;;;;;;;75.80;24.23;;;;;;;17.86;100.00;101694.59;5033571;28;20045;-68
2023/09/02 04:46:02;;;;;;;64.22;25.23;;;;;;;17.85;100.00;101692.91;5044275;28;20087;-67
2023/09/02 04:48:29;;;;;;;91.05;25.15;;;;;;;17.83;100.00;101694.06;5048603;28;20049;-68
2023/09/02 04:50:56;;;;;;;52.97;24.23;;;;;;;17.84;100.00;101701.88;5035271;28;20071;-67
2023/09/02 04:53:23;;;;;;;47.47;24.37;;;;;;;17.87;100.00;101698.06;5050721;28;20457;-67
2023/09/02 04:55:50;;;;;;;51.95;24.80;;;;;;;17.87;100.00;101704.19;5029379;28;20301;-67
2023/09/02 04:58:18;;;;;;;56.80;24.73;;;;;;;17.90;100.00;101714.47;5042871;28;20154;-67
2023/09/02 05:00:45;;;;;;;55.40;26.60;;;;;;;17.91;100.00;101709.97;5042368;28;20079;-68
2023/09/02 05:03:11;;;;;;;60.13;23.77;;;;;;;17.88;100.00;101705.84;5041077;28;20415;-67
2023/09/02 05:05:37;;;;;;;48.67;25.05;;;;;;;17.92;100.00;101715.13;5042555;28;20163;-68
2023/09/02 05:08:04;;;;;;;62.90;25.05;;;;;;;17.90;100.00;101718.94;5021369;28;20060;-68
2023/09/02 05:10:31;;;;;;;64.47;24.23;;;;;;;17.88;100.00;101721.78;5037206;28;20049;-67
2023/09/02 05:12:57;;;;;;;65.60;25.20;;;;;;;17.87;100.00;101722.75;5035539;28;20057;-67
2023/09/02 05:15:24;;;;;;;45.83;24.08;;;;;;;17.88;100.00;101718.31;5043640;28;20135;-67
2023/09/02 05:17:50;;;;;;;42.70;24.67;;;;;;;17.87;100.00;101728.06;5052195;28;20050;-67
2023/09/02 05:20:17;;;;;;;64.35;24.13;;;;;;;17.86;100.00;101730.91;5044035;28;20056;-67
2023/09/02 05:22:44;;;;;;;55.25;24.83;;;;;;;17.89;100.00;101725.25;5048196;28;20071;-67
2023/09/02 05:25:10;;;;;;;43.85;25.10;;;;;;;17.90;100.00;101727.75;5031805;28;20112;-67
2023/09/02 05:27:38;;;;;;;46.08;23.65;;;;;;;17.91;100.00;101721.41;5039799;28;20160;-67
2023/09/02 05:30:06;;;;;;;44.35;23.15;;;;;;;17.93;100.00;101726.56;5026690;28;20152;-68
2023/09/02 05:32:32;;;;;;;45.97;24.48;;;;;;;17.96;100.00;101726.22;5063604;28;20041;-67
2023/09/02 05:34:59;;;;;;;42.50;24.23;;;;;;;17.97;100.00;101728.72;5047066;28;20052;-68
2023/09/02 05:37:25;;;;;;;42.70;25.15;;;;;;;18.00;100.00;101724.88;5039128;28;20049;-67
2023/09/02 05:39:52;;;;;;;47.00;24.40;;;;;;;18.01;100.00;101733.66;5033703;28;20067;-66
2023/09/02 05:42:18;;;;;;;46.50;25.60;;;;;;;18.03;100.00;101739.63;5041347;28;20131;-67
2023/09/02 05:44:45;;;;;;;38.75;24.20;;;;;;;18.05;100.00;101741.09;5042797;28;20052;-67
2023/09/02 05:47:11;;;;;;;42.88;24.85;;;;;;;18.06;100.00;101742.75;5039526;28;20741;-67
2023/09/02 05:49:39;;;;;;;47.47;25.38;;;;;;;18.07;100.00;101751.53;5045134;28;20059;-68
2023/09/02 05:52:06;;;;;;;60.63;26.77;;;;;;;18.09;100.00;101755.69;5042123;28;20045;-67
2023/09/02 05:54:33;;;;;;;54.30;25.05;;;;;;;18.07;100.00;101755.03;5013367;28;20060;-67
2023/09/02 05:57:00;;;;;;;40.63;24.38;;;;;;;18.10;100.00;101762.66;5041976;28;20080;-67
2023/09/02 05:59:26;;;;;;;49.53;26.45;;;;;;;18.11;100.00;101774.09;5039273;28;20773;-67
2023/09/02 06:01:55;;;;;;;53.88;26.83;;;;;;;18.15;100.00;101765.63;5041981;28;20061;-67
2023/09/02 06:04:21;;;;;;;54.92;27.80;;;;;;;18.16;100.00;101767.25;5035743;28;20830;-67
2023/09/02 06:06:47;;;;;;;49.58;25.88;;;;;;;18.21;100.00;101761.44;5032779;28;20154;-67
2023/09/02 06:09:14;;;;;;;51.05;25.15;;;;;;;18.23;100.00;101756.78;5041418;28;20490;-69
2023/09/02 06:11:40;;;;;;;47.85;25.70;;;;;;;18.25;100.00;101756.59;5048236;28;20682;-67
2023/09/02 06:14:07;;;;;;;76.03;27.48;;;;;;;18.27;100.00;101762.56;5039841;28;20048;-67
2023/09/02 06:16:33;;;;;;;48.08;25.83;;;;;;;18.32;100.00;101760.22;5036205;28;20080;-67
2023/09/02 06:19:00;;;;;;;47.85;26.02;;;;;;;18.35;100.00;101758.03;5040336;28;20049;-67
2023/09/02 06:21:26;;;;;;;51.55;28.80;;;;;;;18.38;100.00;101755.03;5039771;28;20116;-67
2023/09/02 06:23:53;;;;;;;51.78;28.15;;;;;;;18.38;100.00;101772.78;5036967;28;20055;-68
2023/09/02 06:26:19;;;;;;;50.40;25.27;;;;;;;18.44;100.00;101765.97;5041400;28;20101;-67
2023/09/02 06:28:46;;;;;;;47.50;26.88;;;;;;;18.45;100.00;101763.13;5035165;28;20090;-67
2023/09/02 06:31:13;;;;;;;60.92;26.67;;;;;;;18.47;100.00;101773.59;5039366;28;20130;-68
2023/09/02 06:33:39;;;;;;;46.58;26.90;;;;;;;18.47;100.00;101785.03;5034489;28;20115;-67
2023/09/02 06:36:10;;;;;;;50.75;28.17;;;;;;;18.47;100.00;101787.69;5034386;28;20053;-68
2023/09/02 06:38:37;;;;;;;50.50;27.55;;;;;;;18.44;100.00;101793.34;5039434;28;20926;-68
2023/09/02 06:41:14;;;;;;;49.63;26.42;;;;;;;18.51;100.00;101793.47;5041392;28;20049;-67
2023/09/02 06:43:42;;;;;;;46.40;25.70;;;;;;;18.49;100.00;101804.28;5048907;28;20082;-68
2023/09/02 06:46:16;;;;;;;46.40;26.58;;;;;;;18.52;100.00;101817.22;5039303;28;20104;-68
2023/09/02 06:48:44;;;;;;;54.75;26.00;;;;;;;18.53;100.00;101812.72;5040064;28;20045;-68
2023/09/02 06:51:11;;;;;;;47.78;27.27;;;;;;;18.54;100.00;101817.88;5028121;28;20322;-67
2023/09/02 06:53:41;;;;;;;54.83;27.75;;;;;;;18.51;100.00;101823.53;5039797;28;20179;-68
2023/09/02 06:56:08;;;;;;;61.15;24.90;;;;;;;18.45;100.00;101836.69;5034550;28;20056;-67
2023/09/02 06:58:37;;;;;;;49.63;25.65;;;;;;;18.49;100.00;101840.66;5040742;28;20421;-67
2023/09/02 07:01:03;;;;;;;52.17;26.80;;;;;;;18.45;100.00;101845.47;5045944;28;20059;-67
2023/09/02 07:03:30;;;;;;;44.60;26.35;;;;;;;18.45;100.00;101850.78;5015974;28;20059;-67
2023/09/02 07:06:06;;;;;;;47.20;26.63;;;;;;;18.47;100.00;101853.28;5039764;28;20049;-67
2023/09/02 07:08:33;;;;;;;46.60;26.73;;;;;;;18.48;100.00;101853.09;5008851;28;20493;-67
2023/09/02 07:11:00;;;;;;;44.95;26.90;;;;;;;18.50;100.00;101855.56;5036735;28;20052;-67
2023/09/02 07:13:26;;;;;;;49.30;27.35;;;;;;;18.48;100.00;101854.91;5032568;28;20055;-68
2023/09/02 07:15:59;;;;;;;47.40;27.60;;;;;;;18.53;100.00;101863.22;5032894;28;20061;-68
2023/09/02 07:18:26;;;;;;;40.65;25.00;;;;;;;18.55;100.00;101866.53;5041273;28;20095;-67
2023/09/02 07:20:57;;;;;;;45.17;27.00;;;;;;;18.57;100.00;101868.00;5037621;28;20714;-67
2023/09/02 07:23:24;;;;;;;48.53;25.65;;;;;;;18.57;100.00;101870.66;5041963;28;20058;-67
2023/09/02 07:25:50;;;;;;;49.30;27.17;;;;;;;18.57;100.00;101875.97;5021652;28;20049;-68
2023/09/02 07:28:17;;;;;;;47.38;26.77;;;;;;;18.61;100.00;101888.91;5038652;28;20102;-67
2023/09/02 07:30:43;;;;;;;46.60;27.15;;;;;;;18.63;100.00;101884.25;5034222;28;20111;-67
2023/09/02 07:33:10;;;;;;;45.28;26.77;;;;;;;18.66;100.00;101879.44;5046872;28;20486;-68
2023/09/02 07:35:38;;;;;;;38.50;23.48;;;;;;;18.70;100.00;101880.72;5045731;28;20049;-67
2023/09/02 07:38:04;;;;;;;38.05;23.40;;;;;;;18.73;100.00;101883.03;5039898;28;20101;-67
2023/09/02 07:40:31;;;;;;;36.28;22.85;;;;;;;18.77;100.00;101894.13;5045778;28;20528;-67
2023/09/02 07:43:00;;;;;;;31.60;21.15;;;;;;;18.82;100.00;101886.50;5034215;28;20053;-67
2023/09/02 07:45:26;;;;;;;34.50;21.85;;;;;;;18.85;100.00;101896.78;5043260;28;20072;-68
2023/09/02 07:47:53;;;;;;;34.40;21.30;;;;;;;18.90;100.00;101902.41;5039706;28;20520;-68
2023/09/02 07:50:20;;;;;;;29.60;19.58;;;;;;;18.92;100.00;101894.25;5047588;28;20523;-67
2023/09/02 07:52:48;;;;;;;30.00;20.50;;;;;;;18.89;100.00;101902.56;5045007;28;20044;-68
2023/09/02 07:55:14;;;;;;;30.13;19.70;;;;;;;18.93;100.00;101903.88;5037720;28;20048;-68
2023/09/02 07:57:44;;;;;;;29.92;20.55;;;;;;;18.99;100.00;101905.84;5038268;28;20045;-68
2023/09/02 08:00:10;;;;;;;29.33;19.48;;;;;;;19.04;100.00;101923.94;5036068;28;20049;-67
2023/09/02 08:02:37;;;;;;;28.23;20.00;;;;;;;18.98;100.00;101928.13;5043563;28;20072;-67
2023/09/02 08:05:04;;;;;;;25.63;17.95;;;;;;;19.00;100.00;101933.28;5044557;28;20071;-68
2023/09/02 08:07:31;;;;;;;24.45;18.30;;;;;;;19.05;100.00;101938.88;5023365;28;20506;-67
2023/09/02 08:09:58;;;;;;;24.98;18.40;;;;;;;19.09;100.00;101943.69;5044003;28;20521;-67
2023/09/02 08:12:24;;;;;;;24.50;18.70;;;;;;;19.14;100.00;101951.94;5029842;28;20138;-68
2023/09/02 08:14:51;;;;;;;27.63;19.75;;;;;;;19.19;100.00;101954.09;5048780;28;20087;-68
2023/09/02 08:17:19;;;;;;;23.58;17.75;;;;;;;19.26;100.00;101949.72;5042357;28;20052;-67
2023/09/02 08:19:46;;;;;;;25.42;19.23;;;;;;;19.25;100.00;101957.84;5047014;28;20056;-68
2023/09/02 08:22:13;;;;;;;24.45;18.95;;;;;;;19.27;100.00;101951.38;5046506;28;20412;-67
2023/09/02 08:24:40;;;;;;;23.70;18.23;;;;;;;19.32;100.00;101948.19;5040483;28;20560;-66
2023/09/02 08:27:08;;;;;;;26.95;19.55;;;;;;;19.34;100.00;101941.66;5042589;28;20057;-68
2023/09/02 08:29:35;;;;;;;26.73;19.25;;;;;;;19.36;100.00;101944.97;5021304;28;20064;-68
2023/09/02 08:32:01;;;;;;;27.00;18.75;;;;;;;19.41;100.00;101941.81;5041481;28;20060;-67
2023/09/02 08:34:28;;;;;;;24.02;18.58;;;;;;;19.45;100.00;101943.09;5035739;28;20081;-67
2023/09/02 08:36:55;;;;;;;22.15;17.60;;;;;;;19.48;100.00;101945.41;5048823;28;20084;-67
2023/09/02 08:39:21;;;;;;;26.05;19.40;;;;;;;19.53;100.00;101948.34;5038379;28;20465;-68
2023/09/02 08:41:49;;;;;;;25.23;19.63;;;;;;;19.58;100.00;101945.16;5028858;28;20608;-67
2023/09/02 08:44:17;;;;;;;27.63;19.65;;;;;;;19.68;100.00;101942.25;5027713;28;20048;-67
2023/09/02 08:46:45;;;;;;;27.50;20.10;;;;;;;19.79;100.00;101935.72;5033626;28;20162;-67
2023/09/02 08:49:14;;;;;;;;;;;;;;;19.88;100.00;101930.13;5041573;28;20067;-66
2023/09/02 08:51:42;;;;;;;26.83;20.40;;;;;;;19.99;100.00;101926.19;5038979;28;19924;-68
2023/09/02 08:54:10;;;;;;;;;;;;;;;20.06;100.00;101924.44;5016646;28;20056;-66
2023/09/02 08:56:41;;;;;;;23.67;17.90;;;;;;;20.10;100.00;101922.25;5039776;28;19929;-67
2023/09/02 08:59:12;;;;;;;22.98;17.88;;;;;;;20.06;100.00;101927.13;5037291;28;20090;-67
2023/09/02 09:01:44;;;;;;;23.50;17.80;;;;;;;20.13;100.00;101932.53;5039866;28;20158;-66
2023/09/02 09:04:14;;;;;;;20.92;16.00;;;;;;;20.19;100.00;101926.50;5035225;28;20059;-67
2023/09/02 09:06:41;;;;;;;21.67;15.85;;;;;;;20.19;100.00;101921.16;5041560;28;20725;-68
2023/09/02 09:09:09;;;;;;;22.92;16.88;;;;;;;20.30;100.00;101920.69;5033396;28;20717;-68
2023/09/02 09:11:38;;;;;;;;;;;;;;;20.46;100.00;101924.19;5039478;28;20060;-67
2023/09/02 09:14:09;;;;;;;17.65;13.75;;;;;;;20.57;100.00;101926.38;5042951;28;19932;-68
2023/09/02 09:16:39;;;;;;;22.52;15.82;;;;;;;20.55;100.00;101939.88;5040483;28;20066;-67
2023/09/02 09:19:05;;;;;;;16.58;13.18;;;;;;;20.62;100.00;101947.16;5036493;28;20489;-68
2023/09/02 09:21:34;;;;;;;22.10;16.38;;;;;;;20.64;100.00;101961.97;5026957;28;20048;-67
2023/09/02 09:24:03;;;;;;;22.00;15.65;;;;;;;20.68;100.00;101962.41;5026030;28;20049;-66
2023/09/02 09:26:30;;;;;;;;;;;;;;;20.77;100.00;101969.31;5032277;28;20090;-67
2023/09/02 09:28:58;;;;;;;27.58;17.17;;;;;;;20.84;100.00;101977.41;5055029;28;19928;-66
2023/09/02 09:31:28;;;;;;;22.33;16.90;;;;;;;20.88;100.00;101981.34;5050396;28;20052;-68
2023/09/02 09:34:01;;;;;;;23.08;16.30;;;;;;;20.85;100.00;101979.84;5043237;28;20048;-66
2023/09/02 09:36:30;;;;;;;25.55;17.00;;;;;;;20.84;100.00;101990.75;5035147;28;20059;-66
2023/09/02 09:39:02;;;;;;;22.08;15.85;;;;;;;20.87;100.00;101993.84;5049843;28;20535;-66
2023/09/02 09:41:29;;;;;;;20.85;15.90;;;;;;;20.94;100.00;101991.28;5043496;28;20045;-67
2023/09/02 09:44:17;;;;;;;17.40;12.82;;;;;;;21.08;100.00;101986.91;5042128;28;20049;-67
2023/09/02 09:46:43;;;;;;;19.20;15.45;;;;;;;21.23;100.00;101990.38;5053078;28;20052;-66
2023/09/02 09:49:32;;;;;;;20.42;15.57;;;;;;;21.47;100.00;101993.72;5040645;28;20255;-65
2023/09/02 09:52:01;;;;;;;18.70;15.07;;;;;;;21.65;100.00;101982.59;5035241;28;20048;-66
2023/09/02 09:54:41;;;;;;;20.80;14.95;;;;;;;21.77;100.00;101997.06;5047581;28;20136;-65
2023/09/02 09:57:11;;;;;;;20.95;16.40;;;;;;;21.80;100.00;101990.53;5040468;28;20110;-66
2023/09/02 09:59:38;;;;;;;19.85;13.85;;;;;;;21.96;100.00;101998.25;5049354;28;20044;-67
2023/09/02 10:02:05;;;;;;;20.02;14.73;;;;;;;22.18;100.00;101996.38;5020449;28;20052;-68
2023/09/02 10:04:33;;;;;;;18.33;15.10;;;;;;;22.41;100.00;102000.66;5041630;28;20052;-68
2023/09/02 10:07:01;;;;;;;17.65;14.48;;;;;;;22.47;100.00;102005.22;5040811;28;20654;-66
2023/09/02 10:09:42;;;;;;;17.05;13.77;;;;;;;22.47;100.00;102014.06;5049412;28;20045;-67
2023/09/02 10:12:13;;;;;;;17.15;13.63;;;;;;;22.50;100.00;102015.50;5055113;28;20143;-67
2023/09/02 10:14:47;;;;;;;20.08;14.73;;;;;;;22.50;100.00;102011.00;5031038;28;20152;-66
2023/09/02 10:17:15;;;;;;;16.48;13.25;;;;;;;22.54;100.00;102015.94;5044947;28;20045;-66
2023/09/02 10:19:44;;;;;;;19.30;14.10;;;;;;;22.68;100.00;102017.69;5031809;28;20631;-66
2023/09/02 10:22:19;;;;;;;16.30;14.10;;;;;;;22.65;100.00;102020.75;5048963;28;20114;-67
2023/09/02 10:25:06;;;;;;;15.90;12.60;;;;;;;22.74;100.00;102026.75;5041450;28;20050;-66
2023/09/02 10:27:40;;;;;;;16.43;12.97;;;;;;;22.73;100.00;102020.56;5049825;28;20048;-66
2023/09/02 10:30:14;;;;;;;16.95;13.00;;;;;;;22.76;100.00;102030.03;5039275;28;20044;-67
2023/09/02 10:32:44;;;;;;;15.98;12.63;;;;;;;22.77;100.00;102031.72;5024747;28;20048;-67
2023/09/02 10:35:17;;;;;;;16.88;12.85;;;;;;;22.76;100.00;102033.56;5047540;28;20099;-67
2023/09/02 10:37:51;;;;;;;16.00;12.25;;;;;;;22.77;100.00;102039.72;5042469;28;20677;-68
2023/09/02 10:40:27;;;;;;;16.70;12.70;;;;;;;22.85;100.00;102042.25;5047219;28;20049;-67
2023/09/02 10:42:54;;;;;;;14.75;12.15;;;;;;;22.81;100.00;102043.66;5039435;28;20114;-68
2023/09/02 10:45:22;;;;;;;14.20;12.65;;;;;;;22.78;100.00;102047.56;5044443;28;20124;-67
2023/09/02 10:47:50;;;;;;;14.30;12.77;;;;;;;22.63;100.00;102031.63;5033867;28;20041;-67
2023/09/02 10:50:18;;;;;;;;;;;;;;;22.67;100.00;102048.13;5024805;28;20042;-68
2023/09/02 10:52:44;;;;;;;15.63;12.38;;;;;;;22.64;100.00;102048.50;5029269;28;20079;-67
2023/09/02 10:55:22;;;;;;;;;;;;;;;22.67;100.00;102048.13;5045925;28;20040;-68
2023/09/02 10:57:55;;;;;;;14.07;11.45;;;;;;;22.68;100.00;102049.78;5047508;28;19935;-67
2023/09/02 11:00:28;;;;;;;14.90;11.60;;;;;;;22.64;100.00;102051.16;5042913;28;20279;-68
2023/09/02 11:02:58;;;;;;;15.70;12.68;;;;;;;22.63;100.00;102055.69;5046702;28;20158;-67
2023/09/02 11:05:28;;;;;;;10.93;9.13;;;;;;;22.65;100.00;102055.50;5042945;28;20118;-67
2023/09/02 11:07:55;;;;;;;16.20;13.25;;;;;;;22.56;100.00;102051.34;5048126;28;20160;-67
2023/09/02 11:10:52;;;;;;;16.33;12.60;;;;;;;22.57;100.00;102064.50;5051207;28;20048;-69